Longreach, Australia

2:08 PM AEST on February 22, 2017 (GMT +1000)
Queensland | | Change Station

Elev 617 ft 23.45 °S, 144.25 °E | Updated 2 seconds ago

Clear
Clear
89.4 °F
Feels Like 92 °F
N
0.0
Wind Variable Wind from NE
Gusts 5.1 mph

Today
High -- | Low -- °F
--% Chance of Precip.
Yesterday
High -- | Low -- °F
Precip. -- in
Pressure 29.92 in
Visibility -9999.0 miles
Clouds
Heat Index 92 °F
Dew Point 66 °F
Humidity 46%
Rainfall 0.02 in
Snow Depth Not available.
6:14 AM 6:57 PM
Waning Crescent, 20% visible
METAR YLRE 220400Z 09005KT 050V140 CAVOK 32/18 Q1013
Pressure 29.92 in
Visibility -9999.0 miles
Clouds
Heat Index 92 °F
Dew Point 66 °F
Humidity 46%
Rainfall 0.02 in
Snow Depth Not available.
6:14 AM 6:57 PM
Waning Crescent, 20% visible
METAR YLRE 220400Z 09005KT 050V140 CAVOK 32/18 Q1013

Get Your Daily Forecast Email!

Thanks for signing up!

Be on the lookout for a verification email in your inbox.

You'll start receiving the daily forecast at 8 AM.

×

10-Day Weather Forecast

×

Almanac

Astronomy

Feb. 22, 2017 Rise Set
Actual Time
Civil Twilight
Nautical Twilight
Astronomical Twilight
Moon
Length of Visible Light
Length of Day
Tomorrow will be .
, % of the Moon is Illuminated

Today's Extremes

Country Highs Country Lows

Community

WunderPhotos

Upload Photos

1,962,540 photos uploaded!

WunderBlog® & News

Nearby

Air Quality

  Air Quality AQ Index Pollutant
Not available.

Snow Depth

Station Depth Elevation

Earthquake Activity

City Distance Mag. Time & Date
Minimum magnitude displayed is 2.5.

Coastal Water Temperatures

Place Temperature

Stations

Nearby Weather Stations

Station Location Temp. Windchill Dew Point Humidity Wind Precip. Elev Updated Type